Meteo Giornale » Osservazioni meteo Francia » Parigi-Orly

ore: 15:30 - Osservazioni Meteo Parigi-Orly
Lat. 48° 44' N Lon. 2° 24' E Alt. 89 metri s.l.m.

molto_nuvoloso Europe/Paris

22 °C

Molto Nuvoloso

Temp. 24 Ore

17 °C

26 °C

Sud-Ovest

13 Km/h

Dew point 17 °C

Umidità 73 %

Visibilità  10 Km

Il sole sorge alle ore 06:13

Il sole tramonta alle ore 21:40

Data e Ora Cielo e Fenomeni T °C DP °C Um. % Pres. hPa Vis. km Vento km/h
Oggi h: 15:30 molto_nuvoloso Molto Nuvoloso 22 17 73 1007 10 SO 13
Oggi h: 15:00 molto_nuvoloso Molto Nuvoloso 21 17 77 1007 10 S/SO 20.3
Oggi h: 14:30 molto_nuvoloso Molto Nuvoloso 22 16 68 1007 10 S 16.7
Oggi h: 14:00 coperto_pioggia Pioggia Debole 21 16 73 1007 10 S/SO 16.7
Oggi h: 13:30 molto_nuvoloso Molto Nuvoloso 21 16 73 1007 10 S 22.2
Oggi h: 13:00 molto_nuvoloso Molto Nuvoloso 21 17 77 1007 10 S 16.7
Oggi h: 12:30 molto_nuvoloso Molto Nuvoloso 20 17 82 1008 10 S 18.5
Oggi h: 12:00 molto_nuvoloso Molto Nuvoloso 19 17 88 1008 10 S 18.5
Oggi h: 11:30 molto_nuvoloso Molto Nuvoloso 18 17 93 1008 10 S 14.8
Oggi h: 11:00 coperto_pioggia Pioggia Debole 18 16 88 1008 6 S 13
Oggi h: 10:30 molto_nuvoloso Molto Nuvoloso 19 15 77 1008 10 S 18.5
Oggi h: 10:00 molto_nuvoloso Molto Nuvoloso 19 16 82 1008 10 S 16.7
Oggi h: 09:30 molto_nuvoloso Molto Nuvoloso 19 16 82 1008 10 S 16.7
Oggi h: 09:00 molto_nuvoloso Molto Nuvoloso 18 16 88 1008 10 S/SO 16.7
Oggi h: 08:30 molto_nuvoloso Molto Nuvoloso 18 16 88 1007 10 S 13
Oggi h: 08:00 molto_nuvoloso Molto Nuvoloso 17 16 93 1007 10 S 14.8
Oggi h: 07:30 molto_nuvoloso Molto Nuvoloso 17 16 93 1008 10 S 13
Oggi h: 07:00 molto_nuvoloso Molto Nuvoloso 17 16 93 1007 10 S 13
Oggi h: 06:30 molto_nuvoloso Molto Nuvoloso 17 16 93 1007 10 S 11.1
Oggi h: 06:00 molto_nuvoloso Molto Nuvoloso 17 16 93 1008 10 S 13
Oggi h: 05:00 coperto_pioggia Pioggia Debole 18 15 82 1008 10 S 9.3
Oggi h: 04:19 molto_nuvoloso Molto Nuvoloso 18 15 82 1008 10 S 13
Oggi h: 03:30 molto_nuvoloso Molto Nuvoloso 18 15 82 1008 10 S 11.1
Oggi h: 03:00 molto_nuvoloso Molto Nuvoloso 19 15 77 1008 10 S/SO 13
Oggi h: 02:30 molto_nuvoloso Molto Nuvoloso 19 15 77 1008 10 S 9.3
Oggi h: 01:30 molto_nuvoloso Molto Nuvoloso 19 15 77 1008 10 S 7.4
Oggi h: 01:00 molto_nuvoloso Molto Nuvoloso 19 15 77 1009 10 N 5.5
Oggi h: 00:30 molto_nuvoloso Molto Nuvoloso 19 15 77 1009 10 S 7.4
Oggi h: 00:00 molto_nuvoloso Molto Nuvoloso 19 16 82 1009 10 S 7.4
Ieri h: 23:30 sereno Sereno 19 16 82 1009 10 N 5.5
Ieri h: 23:00 sereno Sereno 19 16 82 1009 10 N 1.8
Ieri h: 22:30 sereno Sereno 18 15 82 1009 10 N 0
Ieri h: 22:00 molto_nuvoloso Molto Nuvoloso 18 15 82 1009 10 N 5.5
Ieri h: 21:30 nuvoloso Nuvoloso 19 15 77 1009 10 N 1.8
Ieri h: 21:00 molto_nuvoloso Molto Nuvoloso 20 16 77 1009 10 N 3.7
Ieri h: 20:30 nuvoloso Nuvoloso 20 16 77 1009 10 O 11.1
Ieri h: 20:00 molto_nuvoloso Molto Nuvoloso 21 16 73 1008 10 O 18.5
Ieri h: 19:30 molto_nuvoloso Molto Nuvoloso 22 13 56 1008 10 S/SO 7.4
Ieri h: 19:00 molto_nuvoloso Molto Nuvoloso 22 12 53 1008 10 S 14.8
Ieri h: 18:30 nuvoloso_piovaschi Rovescio di Pioggia 24 14 53 1008 10 SO 18.5
Ieri h: 18:00 molto_nuvoloso Molto Nuvoloso 26 15 50 1008 10 O/SO 14.8
Ieri h: 17:00 molto_nuvoloso Molto Nuvoloso 25 13 47 1008 10 SO 18.5
Ieri h: 16:30 molto_nuvoloso Molto Nuvoloso 26 14 47 1008 10 O/SO 18.5
Ieri h: 16:00 sereno Sereno 25 13 47 1009 10 S 11.1